Time;durP1;ratioP1;P1;durP2;ratioP2;P2;SDS_P1;SDS_P2;PMS_P1;PMS_P2;Temp;Humidity;BMP_temperature;BMP_pressure;BME280_temperature;BME280_humidity;BME280_pressure;Samples;Min_cycle;Max_cycle;Signal;HPM_P1;HPM_P2
2021/08/12 00:01:05;;;;;;;19.33;13.93;;;19.60;91.00;;;;;;5063388;28;20423;-61
2021/08/12 00:03:30;;;;;;;15.75;12.57;;;19.50;90.90;;;;;;5085020;28;20027;-61
2021/08/12 00:05:56;;;;;;;19.75;16.50;;;19.50;91.10;;;;;;5084324;28;20033;-62
2021/08/12 00:08:21;;;;;;;29.38;25.35;;;19.50;91.00;;;;;;5081192;28;20176;-61
2021/08/12 00:10:50;;;;;;;41.08;32.55;;;19.50;91.00;;;;;;5066518;28;20036;-61
2021/08/12 00:13:20;;;;;;;27.25;22.92;;;19.60;90.90;;;;;;5082637;28;20028;-63
2021/08/12 00:15:46;;;;;;;26.15;21.00;;;19.60;90.80;;;;;;5084280;28;20025;-63
2021/08/12 00:18:12;;;;;;;29.80;24.13;;;19.70;90.80;;;;;;5063629;28;20016;-64
2021/08/12 00:20:38;;;;;;;28.00;24.60;;;19.70;90.70;;;;;;5086071;28;20051;-64
2021/08/12 00:23:05;;;;;;;25.50;21.75;;;19.70;90.90;;;;;;5081476;28;20021;-61
2021/08/12 00:25:30;;;;;;;25.88;22.33;;;19.70;90.90;;;;;;5084986;28;20031;-61
2021/08/12 00:27:56;;;;;;;26.92;23.75;;;19.70;91.00;;;;;;5082745;28;20434;-62
2021/08/12 00:30:21;;;;;;;25.85;22.98;;;19.70;91.20;;;;;;5083589;28;20783;-62
2021/08/12 00:32:47;;;;;;;21.70;18.02;;;19.70;91.20;;;;;;5061407;28;20407;-62
2021/08/12 00:35:13;;;;;;;19.92;16.48;;;19.70;91.20;;;;;;5092083;28;20092;-62
2021/08/12 00:37:39;;;;;;;23.08;17.52;;;19.70;91.20;;;;;;5078400;28;20039;-63
2021/08/12 00:40:05;;;;;;;17.88;14.82;;;19.60;91.20;;;;;;5088540;28;20107;-61
2021/08/12 00:42:31;;;;;;;26.00;18.63;;;19.60;91.20;;;;;;5076620;28;20630;-63
2021/08/12 00:44:57;;;;;;;22.33;18.23;;;19.40;91.40;;;;;;5084222;28;20086;-63
2021/08/12 00:47:22;;;;;;;21.48;19.27;;;19.40;91.50;;;;;;5083798;28;20039;-63
2021/08/12 00:49:48;;;;;;;25.50;18.92;;;19.40;91.60;;;;;;5092891;28;20028;-63
2021/08/12 00:52:14;;;;;;;19.95;18.02;;;19.40;91.50;;;;;;5090192;28;20055;-63
2021/08/12 00:54:40;;;;;;;19.77;16.85;;;19.50;91.50;;;;;;5085671;28;20036;-64
2021/08/12 00:57:06;;;;;;;22.45;15.65;;;19.50;91.40;;;;;;5083143;28;20040;-61
2021/08/12 00:59:39;;;;;;;19.00;17.08;;;19.40;91.50;;;;;;5092130;28;20035;-62
2021/08/12 01:02:10;;;;;;;20.15;16.98;;;19.50;91.60;;;;;;5074999;28;20051;-62
2021/08/12 01:04:47;;;;;;;18.25;16.27;;;19.50;91.50;;;;;;5086726;28;20035;-61
2021/08/12 01:07:39;;;;;;;16.30;14.68;;;19.50;91.40;;;;;;5073326;28;20384;-62
2021/08/12 01:10:28;;;;;;;17.15;14.05;;;19.30;91.40;;;;;;5088511;28;20562;-62
2021/08/12 01:12:54;;;;;;;15.50;13.65;;;19.20;91.40;;;;;;5079734;28;20040;-62
2021/08/12 01:15:29;;;;;;;16.58;13.30;;;19.10;91.60;;;;;;5080208;28;20033;-62
2021/08/12 01:18:12;;;;;;;14.23;11.73;;;19.00;91.70;;;;;;5087994;28;20035;-63
2021/08/12 01:21:24;;;;;;;15.68;12.82;;;18.90;91.80;;;;;;5064947;28;20050;-63
2021/08/12 01:23:50;;;;;;;13.10;11.77;;;18.80;91.90;;;;;;5087057;28;20020;-63
2021/08/12 01:26:18;;;;;;;19.33;13.57;;;18.80;92.00;;;;;;5074644;28;20032;-63
2021/08/12 01:28:46;;;;;;;20.08;15.05;;;18.80;92.20;;;;;;5084809;28;20064;-64
2021/08/12 01:31:39;;;;;;;14.65;11.93;;;18.90;92.10;;;;;;5063630;28;20028;-62
2021/08/12 01:34:31;;;;;;;15.98;12.57;;;18.90;92.10;;;;;;5074793;28;20174;-64
2021/08/12 01:36:58;;;;;;;15.98;12.27;;;18.80;91.90;;;;;;5083222;28;20032;-62
2021/08/12 01:39:25;;;;;;;16.77;11.95;;;18.70;91.90;;;;;;5083316;28;20058;-63
2021/08/12 01:41:53;;;;;;;17.27;12.23;;;18.50;91.90;;;;;;5076015;28;20025;-63
2021/08/12 01:44:19;;;;;;;13.23;11.93;;;18.50;92.00;;;;;;5087607;28;20491;-63
2021/08/12 01:46:49;;;;;;;12.98;11.57;;;18.60;92.00;;;;;;5077821;28;20036;-62
2021/08/12 01:49:15;;;;;;;16.20;11.95;;;18.60;92.00;;;;;;5088369;28;20490;-62
2021/08/12 01:51:42;;;;;;;16.67;11.15;;;18.60;92.00;;;;;;5091550;28;20047;-62
2021/08/12 01:54:09;;;;;;;16.38;12.00;;;18.50;92.00;;;;;;5056285;28;20032;-62
2021/08/12 01:56:36;;;;;;;18.00;11.50;;;18.60;92.20;;;;;;5086545;28;20641;-62
2021/08/12 01:59:03;;;;;;;13.27;11.73;;;18.60;92.00;;;;;;5083885;28;20025;-62
2021/08/12 02:01:29;;;;;;;12.98;11.50;;;18.60;92.00;;;;;;5084514;28;20416;-62
2021/08/12 02:03:56;;;;;;;12.90;11.30;;;18.50;92.20;;;;;;5092468;28;20081;-62
2021/08/12 02:06:23;;;;;;;13.43;11.50;;;18.40;92.30;;;;;;5074076;28;20102;-62
2021/08/12 02:08:50;;;;;;;13.32;10.82;;;18.40;92.40;;;;;;5080754;28;20028;-63
2021/08/12 02:11:17;;;;;;;12.65;10.48;;;18.40;92.50;;;;;;5083684;28;20714;-60
2021/08/12 02:13:44;;;;;;;13.65;9.77;;;18.30;92.30;;;;;;5088597;28;20036;-63
2021/08/12 02:16:10;;;;;;;12.20;10.90;;;18.20;92.20;;;;;;5077641;28;20487;-62
2021/08/12 02:18:39;;;;;;;15.18;11.30;;;18.20;92.30;;;;;;5089925;28;20127;-63
2021/08/12 02:21:13;;;;;;;14.25;10.57;;;18.30;92.30;;;;;;5084020;28;20508;-63
2021/08/12 02:23:45;;;;;;;12.70;10.90;;;18.40;92.20;;;;;;5080727;28;20426;-62
2021/08/12 02:26:20;;;;;;;14.23;10.45;;;18.40;92.20;;;;;;5091174;28;20294;-61
2021/08/12 02:28:46;;;;;;;13.52;10.52;;;18.40;92.10;;;;;;5081213;28;20062;-62
2021/08/12 02:31:15;;;;;;;13.50;10.95;;;18.30;92.30;;;;;;5084166;28;20441;-62
2021/08/12 02:33:44;;;;;;;12.85;10.55;;;18.40;92.30;;;;;;5089089;28;20099;-62
2021/08/12 02:36:11;;;;;;;12.77;10.43;;;18.40;92.40;;;;;;5077579;28;20059;-63
2021/08/12 02:38:39;;;;;;;11.27;10.07;;;18.30;92.30;;;;;;5089044;28;20478;-62
2021/08/12 02:41:06;;;;;;;12.77;10.57;;;18.30;92.40;;;;;;5083965;28;20040;-62
2021/08/12 02:43:36;;;;;;;10.55;9.55;;;18.30;92.40;;;;;;5081138;28;20040;-61
2021/08/12 02:46:03;;;;;;;13.55;9.98;;;18.30;92.30;;;;;;5090949;28;20074;-62
2021/08/12 02:48:31;;;;;;;16.00;10.02;;;18.30;92.40;;;;;;5078514;28;20115;-62
2021/08/12 02:50:59;;;;;;;13.40;10.95;;;18.30;92.30;;;;;;5094436;28;20021;-62
2021/08/12 02:53:25;;;;;;;12.20;9.82;;;18.20;92.60;;;;;;5082425;28;20091;-61
2021/08/12 02:55:51;;;;;;;14.52;10.18;;;18.20;92.70;;;;;;5090005;28;20499;-61
2021/08/12 02:58:18;;;;;;;11.80;10.02;;;18.10;92.70;;;;;;5077366;28;20048;-62
2021/08/12 03:00:44;;;;;;;11.30;10.00;;;18.10;92.70;;;;;;5088247;28;20063;-63
2021/08/12 03:03:10;;;;;;;13.15;9.90;;;18.10;92.70;;;;;;5084069;28;20036;-62
2021/08/12 03:05:37;;;;;;;13.02;10.10;;;18.00;92.70;;;;;;5080430;28;20032;-63
2021/08/12 03:08:04;;;;;;;10.52;9.43;;;17.90;93.20;;;;;;5076332;28;20064;-61
2021/08/12 03:10:30;;;;;;;11.80;8.90;;;17.80;93.40;;;;;;5089603;28;20158;-62
2021/08/12 03:12:58;;;;;;;11.40;9.75;;;17.70;93.60;;;;;;5082147;28;20032;-62
2021/08/12 03:15:24;;;;;;;11.88;8.32;;;17.60;93.80;;;;;;5081825;28;20025;-63
2021/08/12 03:17:50;;;;;;;11.38;9.38;;;17.50;94.00;;;;;;5089182;28;20035;-63
2021/08/12 03:20:16;;;;;;;10.25;9.15;;;17.40;94.30;;;;;;5085282;28;20507;-62
2021/08/12 03:22:42;;;;;;;13.38;10.18;;;17.50;94.30;;;;;;5073593;28;20040;-62
2021/08/12 03:25:08;;;;;;;11.98;10.02;;;17.50;94.20;;;;;;5083083;28;20039;-63
2021/08/12 03:27:34;;;;;;;10.45;8.65;;;17.50;94.20;;;;;;5093852;28;20028;-63
2021/08/12 03:29:59;;;;;;;11.10;9.63;;;17.60;94.00;;;;;;5077054;28;20032;-62
2021/08/12 03:32:25;;;;;;;13.52;9.50;;;17.70;93.90;;;;;;5089849;28;20384;-61
2021/08/12 03:34:50;;;;;;;12.75;9.35;;;17.70;93.70;;;;;;5080892;28;20085;-63
2021/08/12 03:37:16;;;;;;;11.20;9.40;;;17.70;93.60;;;;;;5082248;28;20064;-62
2021/08/12 03:39:42;;;;;;;15.30;9.95;;;17.60;93.70;;;;;;5087906;28;20067;-62
2021/08/12 03:42:09;;;;;;;14.50;9.88;;;17.60;93.70;;;;;;5076726;28;20036;-62
2021/08/12 03:44:34;;;;;;;13.93;9.32;;;17.50;93.70;;;;;;5053436;28;20534;-64
2021/08/12 03:47:00;;;;;;;12.55;9.20;;;17.40;93.80;;;;;;5081421;28;20044;-63
2021/08/12 03:49:26;;;;;;;12.45;10.15;;;17.40;94.10;;;;;;5090411;28;20016;-62
2021/08/12 03:51:51;;;;;;;15.85;9.80;;;17.30;94.20;;;;;;5059050;28;20109;-63
2021/08/12 03:54:17;;;;;;;11.90;9.40;;;17.30;94.20;;;;;;5092116;28;20130;-62
2021/08/12 03:56:43;;;;;;;13.55;9.02;;;17.40;94.20;;;;;;5088508;28;20032;-63
2021/08/12 03:59:08;;;;;;;11.60;8.98;;;17.40;94.10;;;;;;5093014;28;20032;-61
2021/08/12 04:01:34;;;;;;;14.50;8.52;;;17.50;94.00;;;;;;5093331;28;20040;-62
2021/08/12 04:04:00;;;;;;;11.80;9.63;;;17.50;93.90;;;;;;5075912;28;20511;-63
2021/08/12 04:06:26;;;;;;;36.53;26.27;;;17.50;93.90;;;;;;5088585;28;20052;-63
2021/08/12 04:08:52;;;;;;;31.10;22.50;;;17.50;93.70;;;;;;5045555;28;20036;-63
2021/08/12 04:11:17;;;;;;;15.93;12.13;;;17.50;93.80;;;;;;5081421;28;20039;-61
2021/08/12 04:13:44;;;;;;;11.93;9.85;;;17.50;93.80;;;;;;5087388;28;20039;-62
2021/08/12 04:16:10;;;;;;;16.10;9.52;;;17.50;93.70;;;;;;5075975;28;20036;-63
2021/08/12 04:18:35;;;;;;;13.20;9.25;;;17.50;93.70;;;;;;5087328;28;20399;-63
2021/08/12 04:21:01;;;;;;;13.55;8.73;;;17.50;93.70;;;;;;5092444;28;20027;-62
2021/08/12 04:23:26;;;;;;;13.77;9.00;;;17.50;93.60;;;;;;5080224;28;20539;-61
2021/08/12 04:25:53;;;;;;;12.00;8.50;;;17.60;93.60;;;;;;5088283;28;20035;-63
2021/08/12 04:28:19;;;;;;;13.60;9.48;;;17.60;93.50;;;;;;5075384;28;20059;-62
2021/08/12 04:30:45;;;;;;;10.27;8.27;;;17.70;93.40;;;;;;5085159;28;20064;-62
2021/08/12 04:33:11;;;;;;;12.18;9.52;;;17.70;93.30;;;;;;5082277;28;20032;-61
2021/08/12 04:35:36;;;;;;;14.60;10.02;;;17.80;93.20;;;;;;5078795;28;20033;-61
2021/08/12 04:38:02;;;;;;;12.18;9.68;;;17.80;93.00;;;;;;5088583;28;20127;-61
2021/08/12 04:40:27;;;;;;;9.63;8.23;;;17.80;93.00;;;;;;5076501;28;20368;-62
2021/08/12 04:42:53;;;;;;;13.38;10.68;;;17.80;93.00;;;;;;5084448;28;20043;-61
2021/08/12 04:45:21;;;;;;;18.13;9.25;;;17.80;92.90;;;;;;5083196;28;20124;-61
2021/08/12 04:47:46;;;;;;;13.82;9.52;;;17.70;92.90;;;;;;5077203;28;20492;-61
2021/08/12 04:50:13;;;;;;;14.63;9.77;;;17.60;93.20;;;;;;5076998;28;20037;-61
2021/08/12 04:52:39;;;;;;;11.35;9.73;;;17.60;93.20;;;;;;5086494;28;20048;-62
2021/08/12 04:55:07;;;;;;;15.50;10.85;;;17.60;93.30;;;;;;5081272;28;20130;-62
2021/08/12 04:57:32;;;;;;;12.77;10.48;;;17.60;93.20;;;;;;5078604;28;20508;-63
2021/08/12 04:59:58;;;;;;;12.23;10.95;;;17.60;93.10;;;;;;5088846;28;20135;-62
2021/08/12 05:02:23;;;;;;;10.82;9.73;;;17.70;93.10;;;;;;5088434;28;20062;-61
2021/08/12 05:04:49;;;;;;;12.98;9.73;;;17.80;93.10;;;;;;5079010;28;20099;-62
2021/08/12 05:07:14;;;;;;;13.75;9.80;;;17.80;93.00;;;;;;5080965;28;20039;-63
2021/08/12 05:09:40;;;;;;;12.38;9.48;;;17.90;93.00;;;;;;5086240;28;20031;-63
2021/08/12 05:12:06;;;;;;;13.40;10.18;;;18.00;92.90;;;;;;5074657;28;20025;-62
2021/08/12 05:14:32;;;;;;;15.88;10.30;;;18.00;92.80;;;;;;5069406;28;20035;-61
2021/08/12 05:16:57;;;;;;;14.45;10.65;;;18.00;92.80;;;;;;5079823;28;20025;-62
2021/08/12 05:19:25;;;;;;;11.75;9.82;;;17.90;92.90;;;;;;5086397;28;20027;-63
2021/08/12 05:21:51;;;;;;;12.70;9.57;;;17.90;93.00;;;;;;5073731;28;20036;-63
2021/08/12 05:24:16;;;;;;;17.20;10.68;;;17.90;93.00;;;;;;5089277;28;20040;-62
2021/08/12 05:26:42;;;;;;;15.75;10.73;;;18.00;92.90;;;;;;5059634;28;20021;-63
2021/08/12 05:29:07;;;;;;;50.97;29.92;;;18.10;92.80;;;;;;5082861;28;20542;-62
2021/08/12 05:31:34;;;;;;;39.40;23.65;;;18.10;92.70;;;;;;5085777;28;20050;-62
2021/08/12 05:33:59;;;;;;;21.42;15.30;;;18.10;92.60;;;;;;5057737;28;20037;-63
2021/08/12 05:36:25;;;;;;;19.40;12.25;;;18.10;92.70;;;;;;5088314;28;20028;-62
2021/08/12 05:38:52;;;;;;;18.95;12.00;;;18.10;93.10;;;;;;5079321;28;20130;-62
2021/08/12 05:41:18;;;;;;;15.18;11.50;;;18.20;92.90;;;;;;5081082;28;20036;-63
2021/08/12 05:43:43;;;;;;;18.05;12.18;;;18.20;92.90;;;;;;5090781;28;20040;-62
2021/08/12 05:46:09;;;;;;;17.83;11.60;;;18.20;93.10;;;;;;5078736;28;20078;-62
2021/08/12 05:48:34;;;;;;;16.42;11.43;;;18.20;92.80;;;;;;5094549;28;20082;-63
2021/08/12 05:51:00;;;;;;;20.48;14.77;;;18.30;92.80;;;;;;5067698;28;20039;-62
2021/08/12 05:53:29;;;;;;;17.40;13.55;;;18.30;92.80;;;;;;5083408;28;20025;-63
2021/08/12 05:55:55;;;;;;;15.60;12.35;;;18.40;92.70;;;;;;5092288;28;20101;-62
2021/08/12 05:58:21;;;;;;;17.17;11.85;;;18.50;92.50;;;;;;5078942;28;20494;-61
2021/08/12 06:00:46;;;;;;;16.48;11.52;;;18.60;92.50;;;;;;5095332;28;20405;-61
2021/08/12 06:03:14;;;;;;;15.23;12.43;;;18.60;92.60;;;;;;5067079;28;20029;-62
2021/08/12 06:05:41;;;;;;;16.73;11.80;;;18.70;92.50;;;;;;5089008;28;20433;-63
2021/08/12 06:08:08;;;;;;;22.23;12.63;;;18.70;92.30;;;;;;5078619;28;20048;-64
2021/08/12 06:10:36;;;;;;;14.63;11.52;;;18.70;92.40;;;;;;5090124;28;20031;-62
2021/08/12 06:13:02;;;;;;;21.35;14.13;;;18.80;92.40;;;;;;5083841;28;20119;-62
2021/08/12 06:15:29;;;;;;;20.80;13.50;;;18.80;92.70;;;;;;5082255;28;20048;-63
2021/08/12 06:17:55;;;;;;;16.77;13.20;;;18.90;92.70;;;;;;5091172;28;20058;-62
2021/08/12 06:20:21;;;;;;;18.88;14.30;;;18.90;92.60;;;;;;5086267;28;20040;-63
2021/08/12 06:22:49;;;;;;;25.33;17.17;;;19.00;92.70;;;;;;5075497;28;20040;-63
2021/08/12 06:25:15;;;;;;;19.90;16.23;;;19.10;92.60;;;;;;5085258;28;20036;-62
2021/08/12 06:27:41;;;;;;;17.00;13.00;;;19.20;92.70;;;;;;5076500;28;20032;-63
2021/08/12 06:30:09;;;;;;;16.23;11.95;;;19.20;92.70;;;;;;5057715;28;20510;-63
2021/08/12 06:32:35;;;;;;;18.08;13.23;;;19.20;92.70;;;;;;5089966;28;20062;-63
2021/08/12 06:35:00;;;;;;;20.02;13.98;;;19.10;92.80;;;;;;5080935;28;20063;-62
2021/08/12 06:37:30;;;;;;;17.42;12.82;;;19.10;92.80;;;;;;5057089;28;20032;-61
2021/08/12 06:39:56;;;;;;;16.60;12.63;;;19.20;92.60;;;;;;5074209;28;20043;-62
2021/08/12 06:42:22;;;;;;;16.90;13.43;;;19.30;92.60;;;;;;5077306;28;20112;-62
2021/08/12 06:44:47;;;;;;;18.63;12.02;;;19.40;92.40;;;;;;5080786;28;20067;-63
2021/08/12 06:47:13;;;;;;;14.70;12.30;;;19.60;92.30;;;;;;5093907;28;20064;-63
2021/08/12 06:49:38;;;;;;;19.00;14.00;;;19.70;92.30;;;;;;5091292;28;20101;-62
2021/08/12 06:52:04;;;;;;;22.83;13.30;;;19.90;91.70;;;;;;5093077;28;20078;-62
2021/08/12 06:54:30;;;;;;;26.13;14.35;;;20.00;91.50;;;;;;5078066;28;20039;-62
2021/08/12 06:56:55;;;;;;;16.75;13.25;;;20.10;91.40;;;;;;5085715;28;20098;-63
2021/08/12 06:59:21;;;;;;;17.33;13.70;;;20.00;91.30;;;;;;5085434;28;20104;-61
2021/08/12 07:01:46;;;;;;;19.63;12.82;;;20.10;91.20;;;;;;5094151;28;20107;-62
2021/08/12 07:04:12;;;;;;;25.00;13.10;;;20.20;91.10;;;;;;5059348;28;20067;-64
2021/08/12 07:06:39;;;;;;;15.00;12.02;;;20.40;90.80;;;;;;5087887;28;20028;-63
2021/08/12 07:09:05;;;;;;;30.90;16.33;;;20.50;90.70;;;;;;5082868;28;20107;-62
2021/08/12 07:11:31;;;;;;;19.48;12.95;;;20.50;90.30;;;;;;5081089;28;20033;-62
2021/08/12 07:13:56;;;;;;;20.92;14.15;;;20.60;90.30;;;;;;5090382;28;20511;-62
2021/08/12 07:16:22;;;;;;;19.67;12.77;;;20.70;90.50;;;;;;5076841;28;20047;-63
2021/08/12 07:18:48;;;;;;;15.98;12.40;;;20.60;90.80;;;;;;5088379;28;20058;-63
2021/08/12 07:21:15;;;;;;;18.33;14.20;;;20.70;91.00;;;;;;5083044;28;20507;-62
2021/08/12 07:23:41;;;;;;;24.42;13.82;;;20.70;90.70;;;;;;5073576;28;20036;-61
2021/08/12 07:26:11;;;;;;;20.60;14.38;;;20.70;90.60;;;;;;5091312;28;20037;-63
2021/08/12 07:28:36;;;;;;;18.45;13.35;;;20.80;90.70;;;;;;5073071;28;20080;-62
2021/08/12 07:31:02;;;;;;;17.77;13.27;;;20.90;90.80;;;;;;5086489;28;20110;-63
2021/08/12 07:33:28;;;;;;;17.50;13.25;;;21.00;90.40;;;;;;5081689;28;20040;-62
2021/08/12 07:35:53;;;;;;;16.73;13.27;;;21.20;89.20;;;;;;5089289;28;20040;-63
2021/08/12 07:38:19;;;;;;;19.08;14.75;;;21.30;89.00;;;;;;5081598;28;20040;-62
2021/08/12 07:40:44;;;;;;;17.92;14.00;;;21.20;88.70;;;;;;5081384;28;20042;-63
2021/08/12 07:43:10;;;;;;;14.32;12.52;;;21.30;88.20;;;;;;5084158;28;20488;-61
2021/08/12 07:45:35;;;;;;;19.65;12.60;;;21.50;87.70;;;;;;5083698;28;20090;-61
2021/08/12 07:48:01;;;;;;;13.10;11.32;;;21.60;87.20;;;;;;5081946;28;20055;-62
2021/08/12 07:50:26;;;;;;;14.35;10.73;;;21.60;84.80;;;;;;5084676;28;20033;-65
2021/08/12 07:52:54;;;;;;;13.57;11.15;;;21.60;84.60;;;;;;5085250;28;20051;-63
2021/08/12 07:55:20;;;;;;;11.27;9.75;;;21.70;84.40;;;;;;5093419;28;20036;-62
2021/08/12 07:57:47;;;;;;;12.40;9.02;;;21.70;83.60;;;;;;5081093;28;20043;-61
2021/08/12 08:00:14;;;;;;;11.57;10.10;;;21.80;83.20;;;;;;5062848;28;20028;-62
2021/08/12 08:02:44;;;;;;;11.85;9.70;;;21.90;83.60;;;;;;5078604;28;20161;-62
2021/08/12 08:05:14;;;;;;;14.80;12.23;;;22.00;83.50;;;;;;5082187;28;20028;-63
2021/08/12 08:07:40;;;;;;;16.67;14.57;;;22.10;82.60;;;;;;5074344;28;20114;-61
2021/08/12 08:10:07;;;;;;;11.68;10.10;;;22.00;82.20;;;;;;5091603;28;20044;-61
2021/08/12 08:12:32;;;;;;;10.50;9.40;;;22.10;82.20;;;;;;5093674;28;20032;-61
2021/08/12 08:14:58;;;;;;;12.30;8.70;;;22.20;82.30;;;;;;5093221;28;20035;-62
2021/08/12 08:17:23;;;;;;;9.80;8.80;;;22.30;81.70;;;;;;5092909;28;20043;-60
2021/08/12 08:19:49;;;;;;;12.35;9.45;;;22.50;80.70;;;;;;5083970;28;20517;-60
2021/08/12 08:22:14;;;;;;;9.90;8.82;;;22.60;81.60;;;;;;5072752;28;20047;-61
2021/08/12 08:24:40;;;;;;;9.32;8.27;;;22.60;80.50;;;;;;5073002;28;20036;-62
2021/08/12 08:27:06;;;;;;;9.23;7.72;;;22.70;80.00;;;;;;5054975;28;20044;-62
2021/08/12 08:29:31;;;;;;;11.00;8.63;;;22.70;80.00;;;;;;5073342;28;20512;-60
2021/08/12 08:31:57;;;;;;;10.43;7.85;;;22.60;78.70;;;;;;5072947;28;20032;-59
2021/08/12 08:34:22;;;;;;;8.77;7.88;;;22.50;78.80;;;;;;5072930;28;20036;-62
2021/08/12 08:36:48;;;;;;;9.43;7.07;;;22.50;78.80;;;;;;5073931;28;20055;-61
2021/08/12 08:39:13;;;;;;;8.68;7.70;;;22.70;79.10;;;;;;5073160;28;20783;-62
2021/08/12 08:41:40;;;;;;;10.32;7.93;;;22.80;79.10;;;;;;5072486;28;20066;-61
2021/08/12 08:44:08;;;;;;;9.05;7.50;;;22.90;79.00;;;;;;5072320;28;20491;-61
2021/08/12 08:46:34;;;;;;;10.23;9.10;;;23.00;78.50;;;;;;5072634;28;20044;-62
2021/08/12 08:49:02;;;;;;;12.02;7.70;;;23.10;78.40;;;;;;5078029;28;20115;-61
2021/08/12 08:51:28;;;;;;;9.10;8.05;;;23.20;78.30;;;;;;5093098;28;20024;-61
2021/08/12 08:53:55;;;;;;;10.68;7.35;;;23.10;77.10;;;;;;5093116;28;20078;-61
2021/08/12 08:56:23;;;;;;;8.25;7.45;;;23.00;76.30;;;;;;5092873;28;20043;-61
2021/08/12 08:58:49;;;;;;;12.77;7.13;;;23.10;76.30;;;;;;5092685;28;20103;-61
2021/08/12 09:01:14;;;;;;;12.25;7.05;;;23.30;76.20;;;;;;5092431;28;20044;-62
2021/08/12 09:03:40;;;;;;;11.43;7.88;;;23.50;75.40;;;;;;5092423;28;20032;-61
2021/08/12 09:06:06;;;;;;;9.57;8.68;;;23.70;75.40;;;;;;5092657;28;20099;-61
2021/08/12 09:08:32;;;;;;;10.70;9.43;;;23.80;74.80;;;;;;5092495;28;20055;-62
2021/08/12 09:10:58;;;;;;;8.00;7.20;;;24.00;73.70;;;;;;5093064;28;20078;-60
2021/08/12 09:13:24;;;;;;;10.10;7.47;;;24.10;73.30;;;;;;5093134;28;20138;-62
2021/08/12 09:15:50;;;;;;;9.63;6.85;;;24.00;72.50;;;;;;5092131;28;20039;-61
2021/08/12 09:18:22;;;;;;;14.43;7.68;;;24.10;71.60;;;;;;5092573;28;20517;-61
2021/08/12 09:20:50;;;;;;;10.93;7.22;;;24.10;71.70;;;;;;5092518;28;20031;-61
2021/08/12 09:23:21;;;;;;;12.02;7.97;;;24.30;71.40;;;;;;5092128;28;20039;-62
2021/08/12 09:25:48;;;;;;;8.82;7.15;;;24.30;70.80;;;;;;5074162;28;20130;-61
2021/08/12 09:28:20;;;;;;;8.10;6.85;;;24.40;69.90;;;;;;5075111;28;20150;-62
2021/08/12 09:30:57;;;;;;;8.68;7.57;;;24.30;69.90;;;;;;5094299;28;20036;-62
2021/08/12 09:33:24;;;;;;;11.77;7.43;;;24.40;69.50;;;;;;5093398;28;20039;-61
2021/08/12 09:35:49;;;;;;;9.27;7.07;;;24.30;69.00;;;;;;5092700;28;20047;-61
2021/08/12 09:38:16;;;;;;;6.88;6.18;;;24.30;69.40;;;;;;5092036;28;20028;-60
2021/08/12 09:40:50;;;;;;;7.10;6.40;;;24.50;69.00;;;;;;5074626;28;20040;-61
2021/08/12 09:43:16;;;;;;;;;;;24.50;67.70;;;;;;5092326;28;20039;-63
2021/08/12 09:45:42;;;;;;;7.55;6.85;;;24.60;67.30;;;;;;5091976;28;19904;-61
2021/08/12 09:48:12;;;;;;;7.55;5.88;;;24.70;67.90;;;;;;5092074;28;20042;-60
2021/08/12 09:50:38;;;;;;;6.68;5.90;;;24.60;68.10;;;;;;5092060;28;20036;-60
2021/08/12 09:53:04;;;;;;;7.18;6.00;;;24.80;67.90;;;;;;5092349;28;20454;-60
2021/08/12 09:55:37;;;;;;;8.23;5.95;;;24.90;67.20;;;;;;5091768;28;20075;-62
2021/08/12 09:58:11;;;;;;;6.97;6.28;;;25.10;67.20;;;;;;5091777;28;20028;-62
2021/08/12 10:00:42;;;;;;;7.07;6.45;;;25.10;67.30;;;;;;5092203;28;20491;-61
2021/08/12 10:03:22;;;;;;;6.65;6.05;;;25.00;67.20;;;;;;5072101;28;20060;-59
2021/08/12 10:05:49;;;;;;;8.68;7.18;;;25.10;67.40;;;;;;5072343;28;20020;-60
2021/08/12 10:08:35;;;;;;;7.95;6.38;;;24.90;67.10;;;;;;5072876;28;20107;-61
2021/08/12 10:11:18;;;;;;;7.20;6.50;;;24.80;66.10;;;;;;5072676;28;20029;-61
2021/08/12 10:13:46;;;;;;;7.93;6.20;;;24.80;67.40;;;;;;5071893;28;20043;-60
2021/08/12 10:16:14;;;;;;;8.48;5.93;;;24.80;65.80;;;;;;5072089;28;20033;-60
2021/08/12 10:18:42;;;;;;;7.05;6.35;;;24.80;65.30;;;;;;5071999;28;20048;-61
2021/08/12 10:21:11;;;;;;;7.35;6.65;;;24.80;65.60;;;;;;5092303;28;20070;-61
2021/08/12 10:23:38;;;;;;;6.68;6.07;;;24.90;66.50;;;;;;5091895;28;20027;-61
2021/08/12 10:26:05;;;;;;;7.18;6.32;;;25.00;66.70;;;;;;5091903;28;20074;-60
2021/08/12 10:28:34;;;;;;;6.95;5.95;;;25.10;65.30;;;;;;5091915;28;20116;-61
2021/08/12 10:31:02;;;;;;;6.75;6.05;;;25.00;65.20;;;;;;5077818;28;20577;-61
2021/08/12 10:33:28;;;;;;;8.07;6.50;;;25.10;65.90;;;;;;5095510;28;20066;-61
2021/08/12 10:35:57;;;;;;;10.20;6.47;;;25.20;65.40;;;;;;5095222;28;20036;-61
2021/08/12 10:38:24;;;;;;;7.10;6.38;;;25.30;64.00;;;;;;5077106;28;20039;-61
2021/08/12 10:40:52;;;;;;;7.72;6.93;;;25.40;63.90;;;;;;5095676;28;20111;-62
2021/08/12 10:43:20;;;;;;;8.20;7.15;;;25.50;63.80;;;;;;5094853;28;20032;-61
2021/08/12 10:45:57;;;;;;;7.90;6.88;;;25.60;63.90;;;;;;5095190;28;20130;-61
2021/08/12 10:48:24;;;;;;;6.90;6.20;;;25.70;63.60;;;;;;5095248;28;20089;-61
2021/08/12 10:51:13;;;;;;;7.38;6.63;;;25.50;64.20;;;;;;5094900;28;20027;-61
2021/08/12 10:53:41;;;;;;;7.32;6.57;;;25.60;64.50;;;;;;5076772;28;20027;-61
2021/08/12 10:56:10;;;;;;;7.63;6.40;;;25.60;64.40;;;;;;5096249;28;20484;-61
2021/08/12 10:58:37;;;;;;;7.78;6.35;;;25.40;64.80;;;;;;5095521;28;20040;-60
2021/08/12 11:01:09;;;;;;;7.90;6.90;;;25.40;65.20;;;;;;5095332;28;20033;-61
2021/08/12 11:03:47;;;;;;;7.40;6.10;;;25.50;64.70;;;;;;5095165;28;20140;-60
2021/08/12 11:06:21;;;;;;;8.77;6.68;;;25.30;65.20;;;;;;5076430;28;20025;-63
2021/08/12 11:08:50;;;;;;;7.90;6.75;;;25.30;65.80;;;;;;5095261;28;20031;-61
2021/08/12 11:11:30;;;;;;;7.88;6.70;;;25.50;65.90;;;;;;5094581;28;20032;-61
2021/08/12 11:13:57;;;;;;;6.68;5.97;;;25.60;66.30;;;;;;5094843;28;20040;-62
2021/08/12 11:16:49;;;;;;;8.05;6.50;;;25.70;65.90;;;;;;5093940;28;20040;-60
2021/08/12 11:19:23;;;;;;;8.27;7.35;;;25.80;65.20;;;;;;5094484;28;20084;-62
2021/08/12 11:21:51;;;;;;;6.50;5.90;;;25.80;65.20;;;;;;5094170;28;20399;-61
2021/08/12 11:24:23;;;;;;;7.50;6.70;;;25.70;64.40;;;;;;5094146;28;20063;-61
2021/08/12 11:26:48;;;;;;;7.90;6.18;;;25.80;64.90;;;;;;5093968;28;20055;-62
2021/08/12 11:29:29;;;;;;;7.35;5.88;;;26.10;65.00;;;;;;5093717;28;20483;-62
2021/08/12 11:32:15;;;;;;;7.25;6.00;;;26.20;64.80;;;;;;5094439;28;20081;-61
2021/08/12 11:34:59;;;;;;;9.27;6.55;;;26.30;63.20;;;;;;5093940;28;20071;-62
2021/08/12 11:37:27;;;;;;;7.38;5.78;;;26.20;62.80;;;;;;5094136;28;20491;-62
2021/08/12 11:39:55;;;;;;;8.02;6.05;;;26.20;62.90;;;;;;5093957;28;20040;-62
2021/08/12 11:42:25;;;;;;;7.25;5.80;;;26.30;62.30;;;;;;5094001;28;20055;-62
2021/08/12 11:44:52;;;;;;;7.47;6.20;;;26.40;62.40;;;;;;5076211;28;20032;-63
2021/08/12 11:47:19;;;;;;;7.45;6.13;;;26.50;62.70;;;;;;5093712;28;20021;-62
2021/08/12 11:49:49;;;;;;;6.50;5.57;;;26.50;62.60;;;;;;5093949;28;20032;-61
2021/08/12 11:52:26;;;;;;;8.70;6.18;;;26.70;63.10;;;;;;5093922;28;20028;-62
2021/08/12 11:55:06;;;;;;;6.85;5.75;;;26.80;62.70;;;;;;5094090;28;20051;-61
2021/08/12 11:57:41;;;;;;;7.65;6.85;;;26.60;62.20;;;;;;5093156;28;20028;-62
2021/08/12 12:00:18;;;;;;;6.38;5.75;;;26.60;62.10;;;;;;5093619;28;20028;-61
2021/08/12 12:02:57;;;;;;;9.18;6.28;;;26.70;61.30;;;;;;5093742;28;20093;-61
2021/08/12 12:05:28;;;;;;;9.85;6.68;;;26.70;62.40;;;;;;5093255;28;20020;-62
2021/08/12 12:07:56;;;;;;;8.57;5.95;;;26.80;62.10;;;;;;5093625;28;20033;-62
2021/08/12 12:10:23;;;;;;;7.15;6.45;;;26.90;62.60;;;;;;5093676;28;20032;-61
2021/08/12 12:12:48;;;;;;;5.97;5.38;;;26.90;62.00;;;;;;5093485;28;20483;-60
2021/08/12 12:15:28;;;;;;;7.25;6.50;;;27.00;62.10;;;;;;5093084;28;20046;-61
2021/08/12 12:17:54;;;;;;;7.18;6.13;;;27.00;61.50;;;;;;5093274;28;20691;-61
2021/08/12 12:20:19;;;;;;;6.78;5.82;;;26.80;61.60;;;;;;5093369;28;20039;-61
2021/08/12 12:22:57;;;;;;;8.02;6.40;;;26.80;61.90;;;;;;5093648;28;20046;-62
2021/08/12 12:25:23;;;;;;;9.20;5.70;;;26.80;62.50;;;;;;5093095;28;20039;-62
2021/08/12 12:27:49;;;;;;;11.77;6.45;;;26.80;62.70;;;;;;5093777;28;20031;-61
2021/08/12 12:30:16;;;;;;;7.22;5.90;;;27.10;62.70;;;;;;5075327;28;20059;-61
2021/08/12 12:32:44;;;;;;;7.80;5.90;;;27.50;62.80;;;;;;5093235;28;20040;-61
2021/08/12 12:35:11;;;;;;;9.07;6.68;;;27.80;62.40;;;;;;5093675;28;20403;-61
2021/08/12 12:37:39;;;;;;;7.70;5.57;;;27.80;61.40;;;;;;5074716;28;20024;-63
2021/08/12 12:40:08;;;;;;;6.68;5.93;;;27.60;61.00;;;;;;5074799;28;20126;-61